createdAt,value
2018-07-22T00:01:49.660Z,98136.62
2018-07-22T00:04:18.885Z,98139.62
2018-07-22T00:06:48.093Z,98136.62
2018-07-22T00:09:17.216Z,98131.30
2018-07-22T00:11:46.418Z,98134.11
2018-07-22T00:14:15.584Z,98133.00
2018-07-22T00:16:44.812Z,98126.53
2018-07-22T00:19:13.974Z,98130.46
2018-07-22T00:21:43.244Z,98126.15
2018-07-22T00:24:12.721Z,98121.94
2018-07-22T00:26:41.905Z,98128.28
2018-07-22T00:29:11.093Z,98126.09
2018-07-22T00:31:40.290Z,98126.86
2018-07-22T00:34:09.458Z,98126.30
2018-07-22T00:36:38.731Z,98119.42
2018-07-22T00:39:10.064Z,98115.20
2018-07-22T00:41:39.312Z,98106.40
2018-07-22T00:44:08.463Z,98105.21
2018-07-22T00:46:37.712Z,98103.98
2018-07-22T00:49:06.949Z,98106.20
2018-07-22T00:51:36.125Z,98105.62
2018-07-22T00:54:05.561Z,98105.56
2018-07-22T00:56:35.009Z,98103.49
2018-07-22T00:59:04.223Z,98108.05
2018-07-22T01:01:33.464Z,98106.95
2018-07-22T01:04:02.605Z,98105.78
2018-07-22T01:06:31.872Z,98112.63
2018-07-22T01:09:01.020Z,98111.60
2018-07-22T01:11:30.366Z,98111.86
2018-07-22T01:13:59.521Z,98116.27
2018-07-22T01:16:28.775Z,98114.86
2018-07-22T01:18:58.008Z,98109.94
2018-07-22T01:21:27.456Z,98106.13
2018-07-22T01:23:56.585Z,98112.22
2018-07-22T01:26:25.776Z,98109.02
2018-07-22T01:28:55.004Z,98111.77
2018-07-22T01:31:24.248Z,98112.55
2018-07-22T01:33:54.324Z,98112.56
2018-07-22T01:36:23.452Z,98110.91
2018-07-22T01:38:52.840Z,98111.89
2018-07-22T01:41:22.079Z,98113.23
2018-07-22T01:43:51.238Z,98106.91
2018-07-22T01:46:20.377Z,98106.41
2018-07-22T01:48:49.644Z,98108.72
2018-07-22T01:51:18.932Z,98116.05
2018-07-22T01:53:48.089Z,98109.05
2018-07-22T01:56:17.245Z,98112.47
2018-07-22T01:58:46.666Z,98107.55
2018-07-22T02:01:15.807Z,98112.02
2018-07-22T02:03:44.972Z,98113.27
2018-07-22T02:06:14.102Z,98109.58
2018-07-22T02:08:43.254Z,98113.06
2018-07-22T02:11:12.400Z,98105.83
2018-07-22T02:13:42.537Z,98104.86
2018-07-22T02:16:11.655Z,98097.91
2018-07-22T02:18:40.860Z,98093.81
2018-07-22T02:21:09.992Z,98094.04
2018-07-22T02:23:39.180Z,98100.10
2018-07-22T02:26:08.370Z,98107.79
2018-07-22T02:28:37.550Z,98096.71
2018-07-22T02:31:06.981Z,98099.19
2018-07-22T02:33:37.242Z,98101.01
2018-07-22T02:36:06.845Z,98105.51
2018-07-22T02:38:36.160Z,98100.52
2018-07-22T02:41:05.371Z,98109.22
2018-07-22T02:43:34.527Z,98110.10
2018-07-22T02:46:03.696Z,98108.73
2018-07-22T02:48:32.957Z,98117.89
2018-07-22T02:51:02.206Z,98111.27
2018-07-22T02:53:31.337Z,98112.79
2018-07-22T02:56:00.638Z,97886.27
2018-07-22T02:58:29.835Z,98111.19
2018-07-22T03:00:58.981Z,98114.12
2018-07-22T03:03:28.176Z,98110.05
2018-07-22T03:05:57.446Z,98110.90
2018-07-22T03:08:26.718Z,98107.77
2018-07-22T03:10:55.902Z,98113.49
2018-07-22T03:13:25.109Z,98109.74
2018-07-22T03:15:54.249Z,98118.72
2018-07-22T03:18:23.577Z,98116.21
2018-07-22T03:20:52.773Z,98118.10
2018-07-22T03:23:21.976Z,98116.47
2018-07-22T03:25:51.170Z,98117.91
2018-07-22T03:28:20.426Z,98116.92
2018-07-22T03:30:49.565Z,98118.89
2018-07-22T03:33:18.796Z,98118.15
2018-07-22T03:35:47.954Z,98075.39
2018-07-22T03:38:17.085Z,98132.13
2018-07-22T03:40:46.277Z,98125.87
2018-07-22T03:43:15.447Z,98133.16
2018-07-22T03:45:50.226Z,98130.78
2018-07-22T03:48:19.361Z,98133.75
2018-07-22T03:50:48.626Z,98137.91
2018-07-22T03:53:17.813Z,98143.48
2018-07-22T03:55:47.028Z,98144.59
2018-07-22T03:58:16.149Z,98140.56
2018-07-22T04:00:45.316Z,98144.34
2018-07-22T04:03:14.652Z,98146.30
2018-07-22T04:05:44.118Z,98148.80
2018-07-22T04:08:13.253Z,98147.85
2018-07-22T04:10:42.429Z,98145.97
2018-07-22T04:13:11.698Z,98149.91
2018-07-22T04:15:40.861Z,98151.02
2018-07-22T04:18:10.072Z,98149.18
2018-07-22T04:20:39.212Z,98151.14
2018-07-22T04:23:08.520Z,98148.95
2018-07-22T04:25:37.656Z,98152.11
2018-07-22T04:28:06.813Z,98148.98
2018-07-22T04:30:35.953Z,98153.18
2018-07-22T04:33:05.188Z,98157.16
2018-07-22T04:35:34.412Z,98150.81
2018-07-22T04:38:03.665Z,98147.81
2018-07-22T04:40:32.798Z,98157.81
2018-07-22T04:43:02.016Z,98164.72
2018-07-22T04:45:31.217Z,98159.82
2018-07-22T04:48:00.454Z,98166.02
2018-07-22T04:50:29.600Z,98160.34
2018-07-22T04:52:58.750Z,98165.72
2018-07-22T04:55:27.940Z,98167.64
2018-07-22T04:57:57.143Z,98174.06
2018-07-22T05:00:26.320Z,98180.37
2018-07-22T05:02:55.450Z,98174.70
2018-07-22T05:05:24.721Z,98177.29
2018-07-22T05:07:53.861Z,98180.19
2018-07-22T05:10:23.120Z,98181.00
2018-07-22T05:12:52.246Z,98172.99
2018-07-22T05:15:21.419Z,98179.56
2018-07-22T05:17:50.577Z,98178.41
2018-07-22T05:20:19.776Z,98182.89
2018-07-22T05:22:48.919Z,98181.38
2018-07-22T05:25:18.089Z,98180.89
2018-07-22T05:27:47.256Z,98186.91
2018-07-22T05:30:16.501Z,98182.85
2018-07-22T05:32:45.682Z,98183.97
2018-07-22T05:35:14.885Z,98180.33
2018-07-22T05:37:44.174Z,98181.11
2018-07-22T05:40:13.390Z,98181.44
2018-07-22T05:42:42.513Z,98179.70
2018-07-22T05:45:11.809Z,98180.80
2018-07-22T05:47:41.153Z,98181.41
2018-07-22T05:50:10.385Z,98182.30
2018-07-22T05:52:39.638Z,98185.52
2018-07-22T05:55:08.884Z,98189.42
2018-07-22T05:57:38.029Z,98193.05
2018-07-22T06:00:08.017Z,98197.91
2018-07-22T06:02:37.409Z,98199.12
2018-07-22T06:05:06.882Z,98198.38
2018-07-22T06:07:36.093Z,98207.31
2018-07-22T06:10:06.181Z,98206.26
2018-07-22T06:12:35.356Z,98203.63
2018-07-22T06:15:05.213Z,98201.92
2018-07-22T06:17:34.369Z,98212.69
2018-07-22T06:20:03.601Z,98209.69
2018-07-22T06:22:32.802Z,98209.41
2018-07-22T06:25:02.126Z,98207.83
2018-07-22T06:27:31.448Z,98210.33
2018-07-22T06:30:00.589Z,98210.36
2018-07-22T06:32:29.780Z,98211.22
2018-07-22T06:34:59.090Z,98205.11
2018-07-22T06:37:28.302Z,98207.45
2018-07-22T06:39:57.425Z,98211.58
2018-07-22T06:42:26.598Z,98220.27
2018-07-22T06:44:56.016Z,98214.45
2018-07-22T06:47:25.205Z,98216.98
2018-07-22T06:49:54.383Z,98211.04
2018-07-22T06:52:23.692Z,98208.08
2018-07-22T06:54:53.002Z,98207.89
2018-07-22T06:57:22.331Z,98218.30
2018-07-22T06:59:51.820Z,98215.06
2018-07-22T07:02:21.389Z,98212.23
2018-07-22T07:04:50.558Z,98213.38
2018-07-22T07:07:19.710Z,98213.84
2018-07-22T07:09:48.984Z,98210.45
2018-07-22T07:12:18.152Z,98214.89
2018-07-22T07:14:47.436Z,98217.30
2018-07-22T07:17:16.573Z,98217.13
2018-07-22T07:19:45.884Z,98219.41
2018-07-22T07:22:15.094Z,98220.61
2018-07-22T07:24:44.377Z,98217.78
2018-07-22T07:27:13.529Z,98215.26
2018-07-22T07:29:42.773Z,98213.80
2018-07-22T07:32:12.132Z,98213.57
2018-07-22T07:34:41.376Z,98217.23
2018-07-22T07:37:10.638Z,98218.52
2018-07-22T07:39:39.865Z,98223.20
2018-07-22T07:42:10.329Z,98216.25
2018-07-22T07:44:39.842Z,98223.81
2018-07-22T07:47:09.058Z,98227.24
2018-07-22T07:49:38.418Z,98220.20
2018-07-22T07:52:07.653Z,98226.72
2018-07-22T07:54:37.805Z,98224.83
2018-07-22T07:57:06.953Z,98226.95
2018-07-22T07:59:36.180Z,98225.67
2018-07-22T08:02:05.329Z,98219.83
2018-07-22T08:04:34.535Z,98229.16
2018-07-22T08:07:03.758Z,98225.05
2018-07-22T08:09:33.027Z,98233.08
2018-07-22T08:12:02.154Z,98231.30
2018-07-22T08:14:31.659Z,98227.55
2018-07-22T08:17:01.314Z,98228.89
2018-07-22T08:19:30.577Z,98230.20
2018-07-22T08:22:00.288Z,98227.02
2018-07-22T08:24:29.473Z,98230.75
2018-07-22T08:26:58.686Z,98236.20
2018-07-22T08:29:30.931Z,98235.91
2018-07-22T08:32:00.756Z,98235.11
2018-07-22T08:34:30.265Z,98235.30
2018-07-22T08:36:59.889Z,98239.39
2018-07-22T08:39:30.181Z,98236.86
2018-07-22T08:41:59.925Z,98238.84
2018-07-22T08:44:29.110Z,98242.16
2018-07-22T08:46:58.358Z,98188.78
2018-07-22T08:49:27.657Z,98245.23
2018-07-22T08:51:56.996Z,98239.06
2018-07-22T08:54:26.236Z,98244.25
2018-07-22T08:56:55.542Z,98246.02
2018-07-22T08:59:24.749Z,98248.92
2018-07-22T09:01:54.029Z,98243.67
2018-07-22T09:04:23.153Z,98249.64
2018-07-22T09:06:52.850Z,98247.97
2018-07-22T09:09:22.132Z,98253.05
2018-07-22T09:11:51.369Z,98251.47
2018-07-22T09:14:20.536Z,98255.44
2018-07-22T09:16:49.705Z,98254.17
2018-07-22T09:19:18.934Z,98258.44
2018-07-22T09:21:48.256Z,98250.06
2018-07-22T09:24:18.629Z,98258.06
2018-07-22T09:26:47.751Z,98253.30
2018-07-22T09:29:17.948Z,98256.58
2018-07-22T09:31:47.212Z,98260.72
2018-07-22T09:34:16.449Z,98260.26
2018-07-22T09:36:45.774Z,98264.41
2018-07-22T09:39:15.161Z,98265.16
2018-07-22T09:41:44.495Z,98269.03
2018-07-22T09:44:14.078Z,98264.85
2018-07-22T09:46:43.488Z,98261.22
2018-07-22T09:49:12.892Z,98259.58
2018-07-22T09:51:42.228Z,98262.87
2018-07-22T09:54:11.555Z,98261.98
2018-07-22T09:56:41.107Z,98264.59
2018-07-22T09:59:10.506Z,98264.64
2018-07-22T10:01:39.851Z,98258.05
2018-07-22T10:04:09.406Z,98265.86
2018-07-22T10:06:38.889Z,98262.41
2018-07-22T10:09:10.062Z,98258.05
2018-07-22T10:11:39.711Z,98262.19
2018-07-22T10:14:10.981Z,98260.45
2018-07-22T10:16:40.273Z,98257.59
2018-07-22T10:19:09.743Z,98262.30
2018-07-22T10:21:39.358Z,98260.33
2018-07-22T10:24:08.667Z,98258.27
2018-07-22T10:26:38.105Z,98261.41
2018-07-22T10:29:08.250Z,98261.20
2018-07-22T10:31:37.673Z,98262.63
2018-07-22T10:34:07.054Z,98265.03
2018-07-22T10:36:36.640Z,98267.38
2018-07-22T10:39:08.696Z,98271.31
2018-07-22T10:41:38.063Z,98272.84
2018-07-22T10:44:07.337Z,98271.31
2018-07-22T10:46:37.121Z,98274.40
2018-07-22T10:49:06.667Z,98276.41
2018-07-22T10:51:37.095Z,98274.55
2018-07-22T10:54:09.530Z,98276.09
2018-07-22T10:56:40.005Z,98273.83
2018-07-22T10:59:09.504Z,98276.48
2018-07-22T11:01:40.012Z,98277.13
2018-07-22T11:04:09.266Z,98280.52
2018-07-22T11:06:38.584Z,98285.58
2018-07-22T11:09:09.081Z,98286.73
2018-07-22T11:11:38.806Z,98285.76
2018-07-22T11:14:08.366Z,98276.00
2018-07-22T11:16:40.570Z,98280.85
2018-07-22T11:19:10.709Z,98229.98
2018-07-22T11:21:40.217Z,98281.52
2018-07-22T11:24:09.495Z,98277.57
2018-07-22T11:26:38.769Z,98275.45
2018-07-22T11:29:08.122Z,98277.11
2018-07-22T11:31:37.358Z,98274.00
2018-07-22T11:34:06.796Z,98274.61
2018-07-22T11:36:35.953Z,98276.72
2018-07-22T11:39:07.909Z,98268.41
2018-07-22T11:41:37.897Z,98265.06
2018-07-22T11:44:07.792Z,98260.14
2018-07-22T11:46:38.094Z,98261.06
2018-07-22T11:49:07.609Z,98261.56
2018-07-22T11:51:37.713Z,98256.74
2018-07-22T11:54:07.224Z,98248.77
2018-07-22T11:56:36.388Z,98251.31
2018-07-22T11:59:06.783Z,98246.46
2018-07-22T12:01:36.029Z,98248.21
2018-07-22T12:04:05.312Z,98196.83
2018-07-22T12:06:34.780Z,98241.50
2018-07-22T12:09:05.177Z,98237.48
2018-07-22T12:11:34.342Z,98245.83
2018-07-22T12:14:03.618Z,98240.45
2018-07-22T12:16:33.090Z,98232.40
2018-07-22T12:19:02.510Z,98228.71
2018-07-22T12:21:31.859Z,98229.81
2018-07-22T12:24:01.105Z,98229.54
2018-07-22T12:26:30.261Z,98226.33
2018-07-22T12:28:59.496Z,98216.63
2018-07-22T12:31:28.726Z,98228.19
2018-07-22T12:33:58.210Z,98224.41
2018-07-22T12:36:27.502Z,98230.08
2018-07-22T12:38:56.880Z,98219.88
2018-07-22T12:41:26.213Z,98227.41
2018-07-22T12:43:56.262Z,98226.05
2018-07-22T12:46:25.559Z,98224.97
2018-07-22T12:48:54.785Z,98226.84
2018-07-22T12:51:24.230Z,98222.31
2018-07-22T12:53:53.681Z,98224.71
2018-07-22T12:56:23.433Z,98227.94
2018-07-22T12:58:52.917Z,98226.55
2018-07-22T13:01:22.276Z,98226.57
2018-07-22T13:03:51.631Z,98220.62
2018-07-22T13:06:20.889Z,98228.17
2018-07-22T13:08:50.120Z,98223.30
2018-07-22T13:11:19.408Z,98228.06
2018-07-22T13:13:48.513Z,98222.58
2018-07-22T13:16:18.070Z,98217.59
2018-07-22T13:18:47.231Z,98219.92
2018-07-22T13:21:17.263Z,98223.92
2018-07-22T13:23:46.846Z,98225.01
2018-07-22T13:26:16.158Z,98228.66
2018-07-22T13:28:45.423Z,98229.06
2018-07-22T13:31:14.624Z,98227.59
2018-07-22T13:33:43.750Z,98231.16
2018-07-22T13:36:13.025Z,98230.47
2018-07-22T13:38:42.220Z,98231.09
2018-07-22T13:41:11.418Z,98228.88
2018-07-22T13:43:40.708Z,98231.69
2018-07-22T13:46:10.032Z,98229.45
2018-07-22T13:48:39.260Z,98230.97
2018-07-22T13:51:08.549Z,98229.08
2018-07-22T13:53:37.714Z,98228.45
2018-07-22T13:56:06.946Z,98225.78
2018-07-22T13:58:36.172Z,98227.28
2018-07-22T14:01:05.497Z,98212.17
2018-07-22T14:03:34.706Z,98208.32
2018-07-22T14:06:04.034Z,98206.54
2018-07-22T14:08:33.261Z,98202.37
2018-07-22T14:11:02.503Z,98198.16
2018-07-22T14:13:31.725Z,97786.84
2018-07-22T14:16:01.003Z,98200.38
2018-07-22T14:18:30.170Z,98205.19
2018-07-22T14:21:00.458Z,98209.32
2018-07-22T14:23:29.737Z,98206.73
2018-07-22T14:25:58.982Z,98199.35
2018-07-22T14:28:28.219Z,98195.03
2018-07-22T14:30:57.417Z,98194.30
2018-07-22T14:33:26.732Z,98191.10
2018-07-22T14:35:56.573Z,98186.79
2018-07-22T14:38:27.565Z,98191.44
2018-07-22T14:40:57.429Z,98188.31
2018-07-22T14:43:26.910Z,98188.20
2018-07-22T14:45:56.078Z,98186.69
2018-07-22T14:48:26.316Z,98189.16
2018-07-22T14:50:55.670Z,98177.81
2018-07-22T14:53:24.844Z,98179.11
2018-07-22T14:55:54.225Z,98178.09
2018-07-22T14:58:23.462Z,98182.53
2018-07-22T15:00:52.764Z,98185.44
2018-07-22T15:03:21.956Z,98182.25
2018-07-22T15:05:51.193Z,98181.64
2018-07-22T15:08:20.509Z,98188.33
2018-07-22T15:10:49.815Z,98185.09
2018-07-22T15:13:18.948Z,98192.84
2018-07-22T15:15:48.135Z,98190.10
2018-07-22T15:18:17.501Z,98195.80
2018-07-22T15:20:46.745Z,98196.80
2018-07-22T15:23:16.001Z,98195.39
2018-07-22T15:25:45.300Z,98188.18
2018-07-22T15:28:15.151Z,98193.36
2018-07-22T15:30:44.851Z,98192.63
2018-07-22T15:33:14.055Z,98194.50
2018-07-22T15:35:43.401Z,98181.90
2018-07-22T15:38:12.816Z,98189.82
2018-07-22T15:40:42.068Z,98183.89
2018-07-22T15:43:11.361Z,98184.34
2018-07-22T15:45:40.702Z,98186.84
2018-07-22T15:48:10.034Z,98182.44
2018-07-22T15:50:39.280Z,98185.23
2018-07-22T15:53:08.596Z,98183.80
2018-07-22T15:55:38.036Z,98183.69
2018-07-22T15:58:07.205Z,98180.13
2018-07-22T16:00:36.560Z,98178.67
2018-07-22T16:03:05.883Z,98176.75
2018-07-22T16:05:35.164Z,98170.38
2018-07-22T16:08:04.513Z,98176.80
2018-07-22T16:10:33.820Z,98179.66
2018-07-22T16:13:03.201Z,98178.87
2018-07-22T16:15:32.484Z,98179.81
2018-07-22T16:18:01.821Z,98180.64
2018-07-22T16:20:31.056Z,98186.09
2018-07-22T16:23:00.611Z,98183.70
2018-07-22T16:25:30.053Z,98177.17
2018-07-22T16:27:59.364Z,98175.22
2018-07-22T16:30:28.706Z,98174.51
2018-07-22T16:32:58.032Z,98176.57
2018-07-22T16:35:27.529Z,98172.84
2018-07-22T16:37:56.927Z,98172.84
2018-07-22T16:40:26.436Z,98173.27
2018-07-22T16:42:55.642Z,98173.48
2018-07-22T16:45:25.005Z,98171.63
2018-07-22T16:47:54.252Z,98174.79
2018-07-22T16:50:24.444Z,98164.63
2018-07-22T16:52:53.653Z,98166.83
2018-07-22T16:55:22.910Z,98169.45
2018-07-22T16:57:52.225Z,98170.88
2018-07-22T17:00:21.653Z,97992.39
2018-07-22T17:02:50.906Z,98174.24
2018-07-22T17:05:20.156Z,98167.94
2018-07-22T17:07:49.761Z,98174.73
2018-07-22T17:10:19.172Z,98176.58
2018-07-22T17:12:48.689Z,98180.69
2018-07-22T17:15:18.385Z,98177.93
2018-07-22T17:17:47.678Z,98178.66
2018-07-22T17:20:16.856Z,98181.77
2018-07-22T17:22:46.108Z,98177.65
2018-07-22T17:25:15.319Z,98176.61
2018-07-22T17:27:44.652Z,98181.44
2018-07-22T17:30:13.914Z,98181.14
2018-07-22T17:32:43.239Z,98183.88
2018-07-22T17:35:12.576Z,98179.42
2018-07-22T17:37:41.980Z,98179.92
2018-07-22T17:40:11.177Z,98181.84
2018-07-22T17:42:40.507Z,98177.98
2018-07-22T17:45:09.754Z,98184.89
2018-07-22T17:47:39.081Z,98181.76
2018-07-22T17:50:08.456Z,98187.81
2018-07-22T17:52:37.751Z,98191.63
2018-07-22T17:55:07.194Z,98188.13
2018-07-22T17:57:36.552Z,98193.15
2018-07-22T18:00:06.070Z,97294.17
2018-07-22T18:02:35.335Z,98198.11
2018-07-22T18:07:54.634Z,98197.54
2018-07-22T18:10:24.002Z,98207.59
2018-07-22T18:12:54.339Z,98205.27
2018-07-22T18:15:23.508Z,98199.37
2018-07-22T18:17:52.857Z,98207.36
2018-07-22T18:20:22.048Z,98209.50
2018-07-22T18:22:51.382Z,98211.80
2018-07-22T18:25:20.695Z,98210.78
2018-07-22T18:27:50.065Z,98207.00
2018-07-22T18:30:19.312Z,98208.91
2018-07-22T18:32:48.668Z,98214.30
2018-07-22T18:35:17.841Z,98212.41
2018-07-22T18:37:47.412Z,98208.37
2018-07-22T18:40:16.733Z,98209.45
2018-07-22T18:42:46.000Z,98215.37
2018-07-22T18:45:15.364Z,98217.84
2018-07-22T18:47:44.770Z,98221.91
2018-07-22T18:50:14.065Z,98221.93
2018-07-22T18:52:43.476Z,98224.67
2018-07-22T18:55:12.669Z,98225.77
2018-07-22T18:57:41.912Z,98222.02
2018-07-22T19:00:11.180Z,98228.20
2018-07-22T19:02:40.424Z,98235.47
2018-07-22T19:05:09.734Z,98238.42
2018-07-22T19:07:39.018Z,98241.37
2018-07-22T19:10:08.702Z,98252.41
2018-07-22T19:12:37.893Z,98256.70
2018-07-22T19:15:07.161Z,98257.48
2018-07-22T19:17:36.482Z,98260.18
2018-07-22T19:20:06.120Z,98253.90
2018-07-22T19:22:35.372Z,98255.45
2018-07-22T19:25:04.702Z,98256.30
2018-07-22T19:27:33.892Z,98256.59
2018-07-22T19:30:03.229Z,98258.98
2018-07-22T19:32:32.568Z,98269.20
2018-07-22T19:35:02.044Z,98006.97
2018-07-22T19:37:31.338Z,98277.48
2018-07-22T19:40:00.698Z,98282.86
2018-07-22T19:42:29.884Z,98279.31
2018-07-22T19:44:59.125Z,98289.00
2018-07-22T19:47:28.525Z,98289.28
2018-07-22T19:49:57.808Z,98286.55
2018-07-22T19:52:27.152Z,98284.92
2018-07-22T19:54:56.468Z,98287.33
2018-07-22T19:57:25.762Z,98296.69
2018-07-22T19:59:55.090Z,98290.19
2018-07-22T20:02:24.341Z,98289.09
2018-07-22T20:04:53.689Z,98285.61
2018-07-22T20:07:22.870Z,98288.80
2018-07-22T20:09:52.169Z,98287.30
2018-07-22T20:12:21.399Z,98291.88
2018-07-22T20:14:50.666Z,98296.41
2018-07-22T20:17:19.800Z,98294.55
2018-07-22T20:19:49.056Z,98298.86
2018-07-22T20:22:18.356Z,98299.67
2018-07-22T20:24:47.600Z,98303.46
2018-07-22T20:27:16.825Z,98300.66
2018-07-22T20:29:46.063Z,98303.56
2018-07-22T20:32:15.333Z,98304.09
2018-07-22T20:34:44.823Z,98305.73
2018-07-22T20:37:14.868Z,98301.42
2018-07-22T20:39:44.361Z,98302.75
2018-07-22T20:42:13.554Z,98308.11
2018-07-22T20:44:42.878Z,98310.80
2018-07-22T20:47:12.183Z,98309.45
2018-07-22T20:49:41.365Z,98313.48
2018-07-22T20:52:10.737Z,98304.91
2018-07-22T20:54:40.037Z,98308.69
2018-07-22T20:57:09.583Z,98315.58
2018-07-22T20:59:38.986Z,98314.75
2018-07-22T21:02:08.444Z,98319.05
2018-07-22T21:04:38.115Z,98316.36
2018-07-22T21:07:07.385Z,98321.15
2018-07-22T21:09:37.016Z,98319.30
2018-07-22T21:12:44.818Z,98325.20
2018-07-22T21:15:15.033Z,98323.75
2018-07-22T21:17:46.107Z,98327.02
2018-07-22T21:20:16.263Z,98323.24
2018-07-22T21:22:45.774Z,98326.97
2018-07-22T21:25:15.662Z,98328.56
2018-07-22T21:27:45.504Z,98332.31
2018-07-22T21:30:15.286Z,98332.61
2018-07-22T21:32:44.792Z,98330.38
2018-07-22T21:35:14.151Z,98336.53
2018-07-22T21:37:43.740Z,98334.41
2018-07-22T21:40:13.260Z,98340.33
2018-07-22T21:42:42.568Z,98332.81
2018-07-22T21:45:11.866Z,98338.41
2018-07-22T21:47:42.224Z,98339.09
2018-07-22T21:50:11.590Z,98334.06
2018-07-22T21:52:40.895Z,98340.63
2018-07-22T21:55:10.405Z,98339.44
2018-07-22T21:57:39.698Z,98340.47
2018-07-22T22:00:19.814Z,98343.53
2018-07-22T22:02:49.254Z,98339.75
2018-07-22T22:05:18.573Z,98344.36
2018-07-22T22:07:47.997Z,98345.16
2018-07-22T22:10:17.328Z,98344.05
2018-07-22T22:12:46.676Z,98344.03
2018-07-22T22:15:21.233Z,98348.97
2018-07-22T22:17:50.540Z,98349.17
2018-07-22T22:20:20.980Z,98347.23
2018-07-22T22:22:50.501Z,98343.42
2018-07-22T22:25:20.006Z,98347.86
2018-07-22T22:27:49.401Z,98347.66
2018-07-22T22:30:19.215Z,98350.99
2018-07-22T22:32:48.932Z,98346.39
2018-07-22T22:35:18.204Z,98352.30
2018-07-22T22:37:47.727Z,98347.67
2018-07-22T22:40:17.244Z,98355.39
2018-07-22T22:42:47.460Z,98349.98
2018-07-22T22:45:16.870Z,98354.49
2018-07-22T22:47:46.137Z,98355.52
2018-07-22T22:50:15.529Z,98358.07
2018-07-22T22:52:44.798Z,98363.30
2018-07-22T22:55:14.088Z,98354.73
2018-07-22T22:58:52.376Z,98351.27
2018-07-22T23:01:21.761Z,98348.86
2018-07-22T23:03:50.989Z,98350.38
2018-07-22T23:06:20.154Z,98348.94
2018-07-22T23:08:49.492Z,98350.80
2018-07-22T23:11:18.631Z,98352.23
2018-07-22T23:13:47.951Z,98355.98
2018-07-22T23:16:17.262Z,98352.53
2018-07-22T23:18:46.645Z,98346.36
2018-07-22T23:21:15.805Z,98352.66
2018-07-22T23:23:45.046Z,98349.91
2018-07-22T23:26:14.216Z,98355.45
2018-07-22T23:28:43.377Z,98356.98
2018-07-22T23:31:12.518Z,98353.39
2018-07-22T23:33:41.737Z,98358.41
2018-07-22T23:36:11.136Z,98358.67
2018-07-22T23:38:40.322Z,98357.81
2018-07-22T23:41:09.481Z,98367.20
2018-07-22T23:43:38.685Z,98357.81
2018-07-22T23:46:07.916Z,98361.02
2018-07-22T23:48:37.346Z,98361.45
2018-07-22T23:51:06.863Z,98368.28
2018-07-22T23:53:36.084Z,98361.31
2018-07-22T23:56:05.352Z,98363.72
2018-07-22T23:58:34.576Z,98362.75
